Time;durP1;ratioP1;P1;durP2;ratioP2;P2;SDS_P1;SDS_P2;PMS_P1;PMS_P2;Temp;Humidity;BMP_temperature;BMP_pressure;BME280_temperature;BME280_humidity;BME280_pressure;Samples;Min_cycle;Max_cycle;Signal;HPM_P1;HPM_P2
2023/05/26 00:00:44;;;;;;;20.38;5.93;;;11.90;94.70;;;;;;5075343;28;20028;-82
2023/05/26 00:03:10;;;;;;;23.70;6.18;;;11.90;94.70;;;;;;5076255;28;20024;-82
2023/05/26 00:05:39;;;;;;;18.33;5.50;;;11.80;94.90;;;;;;5065840;28;20081;-82
2023/05/26 00:08:07;;;;;;;18.38;5.25;;;11.70;94.90;;;;;;5094907;28;20016;-82
2023/05/26 00:10:33;;;;;;;19.77;6.07;;;11.80;94.90;;;;;;5082442;28;20009;-82
2023/05/26 00:12:58;;;;;;;18.77;5.53;;;11.70;94.90;;;;;;5082356;28;20013;-83
2023/05/26 00:15:24;;;;;;;21.05;5.70;;;11.70;94.90;;;;;;5080212;28;20031;-83
2023/05/26 00:17:50;;;;;;;20.92;5.55;;;11.70;94.90;;;;;;5062083;28;20017;-83
2023/05/26 00:20:16;;;;;;;19.67;5.22;;;11.70;94.90;;;;;;5053795;28;20506;-83
2023/05/26 00:22:42;;;;;;;18.80;5.57;;;11.70;94.90;;;;;;5037419;28;20035;-83
2023/05/26 00:25:08;;;;;;;25.05;5.03;;;11.60;94.90;;;;;;5053721;28;20123;-83
2023/05/26 00:27:34;;;;;;;23.27;6.25;;;11.60;95.00;;;;;;5056470;28;20025;-82
2023/05/26 00:30:00;;;;;;;24.15;5.78;;;11.50;95.20;;;;;;5073308;28;20094;-82
2023/05/26 00:32:25;;;;;;;20.35;5.20;;;11.50;95.20;;;;;;5056009;28;20033;-83
2023/05/26 00:34:51;;;;;;;22.92;5.53;;;11.50;95.20;;;;;;5073047;28;20111;-83
2023/05/26 00:37:17;;;;;;;20.48;5.15;;;11.50;95.10;;;;;;5060508;28;20057;-82
2023/05/26 00:39:43;;;;;;;20.95;5.15;;;11.50;95.10;;;;;;5086909;28;20457;-84
2023/05/26 00:42:09;;;;;;;15.43;4.88;;;11.50;95.10;;;;;;5053286;28;20373;-82
2023/05/26 00:44:34;;;;;;;21.48;5.75;;;11.50;95.10;;;;;;5053172;28;20404;-82
2023/05/26 00:47:00;;;;;;;19.77;5.60;;;11.50;95.10;;;;;;5056453;28;20025;-83
2023/05/26 00:49:26;;;;;;;14.73;4.95;;;11.50;95.10;;;;;;5057015;28;20021;-81
2023/05/26 00:51:52;;;;;;;23.23;5.43;;;11.50;95.10;;;;;;5052963;28;20540;-82
2023/05/26 00:54:22;;;;;;;20.30;5.60;;;11.40;95.00;;;;;;5061590;28;20031;-82
2023/05/26 00:56:51;;;;;;;21.80;5.18;;;11.40;95.10;;;;;;5056382;28;20154;-82
2023/05/26 00:59:17;;;;;;;23.60;5.70;;;11.40;95.10;;;;;;5056115;28;20040;-82
2023/05/26 01:01:43;;;;;;;22.77;6.15;;;11.40;95.10;;;;;;5056074;28;20031;-82
2023/05/26 01:04:09;;;;;;;20.45;6.07;;;11.30;95.20;;;;;;5072267;28;20020;-82
2023/05/26 01:06:35;;;;;;;21.88;5.53;;;11.30;95.20;;;;;;5063015;28;20024;-82
2023/05/26 01:09:02;;;;;;;21.65;6.00;;;11.30;95.30;;;;;;5069121;28;20021;-83
2023/05/26 01:11:27;;;;;;;25.30;6.10;;;11.20;95.30;;;;;;5052373;28;20443;-83
2023/05/26 01:14:13;;;;;;;15.75;4.95;;;11.20;95.40;;;;;;5053880;28;20060;-83
2023/05/26 01:16:53;;;;;;;16.45;5.05;;;11.20;95.50;;;;;;5052180;28;20119;-82
2023/05/26 01:20:00;;;;;;;27.98;6.38;;;11.10;95.50;;;;;;5052010;28;20473;-83
2023/05/26 01:22:50;;;;;;;21.88;5.78;;;11.10;95.60;;;;;;5013743;28;20030;-82
2023/05/26 01:25:37;;;;;;;20.83;5.55;;;11.00;95.70;;;;;;5031229;28;20121;-83
2023/05/26 01:28:16;;;;;;;21.23;5.30;;;11.00;95.80;;;;;;5048338;28;20032;-83
2023/05/26 01:30:45;;;;;;;21.40;5.25;;;11.00;95.80;;;;;;5073480;28;20056;-83
2023/05/26 01:33:11;;;;;;;15.80;5.38;;;11.00;95.70;;;;;;5072691;28;20040;-83
2023/05/26 01:35:37;;;;;;;20.25;5.13;;;11.10;95.70;;;;;;5074148;28;20064;-83
2023/05/26 01:38:04;;;;;;;18.23;5.00;;;11.10;95.80;;;;;;5057482;28;20028;-83
2023/05/26 01:40:30;;;;;;;16.20;4.47;;;11.10;95.70;;;;;;5082990;28;20107;-82
2023/05/26 01:43:10;;;;;;;22.40;5.32;;;11.10;95.70;;;;;;5097081;28;20031;-83
2023/05/26 01:45:54;;;;;;;21.73;6.18;;;11.10;95.70;;;;;;5097569;28;20020;-82
2023/05/26 01:48:21;;;;;;;23.50;5.57;;;11.00;95.80;;;;;;5094744;28;20532;-81
2023/05/26 01:50:52;;;;;;;23.05;5.25;;;10.90;95.90;;;;;;5061943;28;20127;-82
2023/05/26 01:53:20;;;;;;;22.67;4.95;;;11.00;95.90;;;;;;5073400;28;20025;-82
2023/05/26 01:55:54;;;;;;;16.02;4.72;;;11.00;95.90;;;;;;5069504;28;20024;-83
2023/05/26 01:58:22;;;;;;;19.02;5.07;;;11.00;95.80;;;;;;5052041;28;20036;-82
2023/05/26 02:00:48;;;;;;;17.13;5.60;;;11.00;95.80;;;;;;5035145;28;20472;-83
2023/05/26 02:03:15;;;;;;;22.30;5.75;;;11.00;95.90;;;;;;5071380;28;20039;-81
2023/05/26 02:05:44;;;;;;;17.83;4.43;;;11.00;95.90;;;;;;5055372;28;20020;-82
2023/05/26 02:08:10;;;;;;;19.25;5.10;;;11.00;95.90;;;;;;5062715;28;20033;-82
2023/05/26 02:10:36;;;;;;;19.45;4.85;;;11.00;95.90;;;;;;5050787;28;20111;-81
2023/05/26 02:13:02;;;;;;;21.48;5.45;;;11.00;95.90;;;;;;5071958;28;20446;-81
2023/05/26 02:15:28;;;;;;;18.75;5.50;;;11.00;95.90;;;;;;5071886;28;20029;-82
2023/05/26 02:17:57;;;;;;;27.75;5.80;;;11.00;96.00;;;;;;5055243;28;20021;-82
2023/05/26 02:20:27;;;;;;;24.60;6.10;;;11.00;96.00;;;;;;5073334;28;20355;-82
2023/05/26 02:22:53;;;;;;;25.15;5.65;;;10.90;96.20;;;;;;5076825;28;20410;-81
2023/05/26 02:25:19;;;;;;;19.35;5.47;;;10.90;96.00;;;;;;5075569;28;20059;-82
2023/05/26 02:27:44;;;;;;;21.50;5.18;;;10.90;96.10;;;;;;5058710;28;20043;-82
2023/05/26 02:30:10;;;;;;;25.08;5.70;;;10.90;96.20;;;;;;5058811;28;20091;-82
2023/05/26 02:32:36;;;;;;;20.73;5.65;;;10.80;96.30;;;;;;5076702;28;20032;-81
2023/05/26 02:35:03;;;;;;;20.58;5.32;;;10.80;96.30;;;;;;5075434;28;20349;-82
2023/05/26 02:37:30;;;;;;;19.67;5.95;;;10.80;96.30;;;;;;5075002;28;20495;-82
2023/05/26 02:39:56;;;;;;;15.55;4.53;;;10.80;96.30;;;;;;5055299;28;20067;-82
2023/05/26 02:42:22;;;;;;;20.27;5.93;;;10.80;96.30;;;;;;5072142;28;20032;-82
2023/05/26 02:44:47;;;;;;;18.67;5.20;;;10.70;96.30;;;;;;5055246;28;20029;-82
2023/05/26 02:47:13;;;;;;;16.60;4.82;;;10.70;96.30;;;;;;5097783;28;20033;-83
2023/05/26 02:49:39;;;;;;;20.20;5.93;;;10.70;96.40;;;;;;5050727;28;20040;-82
2023/05/26 02:52:05;;;;;;;19.42;4.68;;;10.70;96.40;;;;;;5071962;28;20055;-81
2023/05/26 02:54:31;;;;;;;17.63;4.85;;;10.70;96.40;;;;;;5056309;28;20024;-83
2023/05/26 02:56:56;;;;;;;18.35;5.30;;;10.70;96.40;;;;;;5054966;28;20040;-82
2023/05/26 02:59:22;;;;;;;18.10;5.75;;;10.70;96.40;;;;;;5055006;28;20033;-82
2023/05/26 03:01:47;;;;;;;17.77;4.90;;;10.60;96.40;;;;;;5054932;28;20057;-82
2023/05/26 03:04:13;;;;;;;19.50;5.45;;;10.60;96.50;;;;;;5055103;28;20029;-82
2023/05/26 03:06:41;;;;;;;23.70;5.75;;;10.60;96.50;;;;;;5055417;28;20033;-82
2023/05/26 03:09:07;;;;;;;23.23;5.57;;;10.50;96.60;;;;;;5055536;28;20032;-82
2023/05/26 03:11:33;;;;;;;22.35;5.80;;;10.50;96.60;;;;;;5055388;28;20029;-81
2023/05/26 03:13:59;;;;;;;21.20;5.28;;;10.50;96.70;;;;;;5069634;28;20036;-82
2023/05/26 03:16:25;;;;;;;17.73;5.60;;;10.50;96.70;;;;;;5079913;28;20013;-82
2023/05/26 03:18:51;;;;;;;17.42;5.10;;;10.50;96.70;;;;;;5079433;28;20032;-83
2023/05/26 03:21:17;;;;;;;27.27;5.63;;;10.50;96.70;;;;;;5080693;28;20037;-82
2023/05/26 03:23:42;;;;;;;18.92;5.38;;;10.50;96.70;;;;;;5065872;28;20057;-82
2023/05/26 03:26:08;;;;;;;20.75;5.78;;;10.50;96.70;;;;;;5055394;28;20053;-82
2023/05/26 03:28:34;;;;;;;21.00;5.53;;;10.50;96.70;;;;;;5055393;28;20017;-82
2023/05/26 03:30:59;;;;;;;20.20;5.40;;;10.50;96.70;;;;;;5037536;28;20496;-82
2023/05/26 03:33:25;;;;;;;22.83;5.43;;;10.50;96.70;;;;;;5054409;28;20053;-82
2023/05/26 03:35:51;;;;;;;20.50;5.85;;;10.50;96.80;;;;;;5056064;28;20104;-82
2023/05/26 03:38:17;;;;;;;21.27;5.85;;;10.50;96.70;;;;;;5056016;28;20033;-82
2023/05/26 03:40:43;;;;;;;15.15;4.47;;;10.50;96.80;;;;;;5054595;28;20047;-82
2023/05/26 03:43:09;;;;;;;22.10;6.10;;;10.40;96.90;;;;;;5070845;28;20087;-82
2023/05/26 03:45:37;;;;;;;21.98;5.53;;;10.40;96.90;;;;;;5055680;28;20061;-83
2023/05/26 03:48:03;;;;;;;18.00;5.00;;;10.40;97.00;;;;;;5054605;28;20464;-85
2023/05/26 03:50:34;;;;;;;17.95;5.25;;;10.40;96.90;;;;;;5054578;28;20091;-83
2023/05/26 03:53:00;;;;;;;;;;;10.40;97.00;;;;;;5054737;28;20487;-83
2023/05/26 03:55:25;;;;;;;22.58;5.35;;;10.30;97.00;;;;;;5054088;28;19960;-83
2023/05/26 03:57:51;;;;;;;16.83;4.75;;;10.30;97.10;;;;;;5054385;28;20044;-83
2023/05/26 04:00:17;;;;;;;17.25;5.47;;;10.30;97.10;;;;;;5054054;28;20385;-83
2023/05/26 04:02:43;;;;;;;25.33;5.57;;;10.30;97.10;;;;;;5070840;28;20437;-82
2023/05/26 04:05:09;;;;;;;23.30;5.78;;;10.30;97.10;;;;;;5053919;28;20037;-83
2023/05/26 04:07:35;;;;;;;18.92;5.97;;;10.30;97.10;;;;;;5054296;28;20094;-83
2023/05/26 04:10:03;;;;;;;19.45;4.35;;;10.30;97.20;;;;;;5053791;28;20117;-83
2023/05/26 04:12:29;;;;;;;16.10;4.70;;;10.30;97.20;;;;;;5070784;28;20175;-83
2023/05/26 04:14:54;;;;;;;22.13;5.63;;;10.30;97.20;;;;;;5053883;28;20112;-83
2023/05/26 04:17:23;;;;;;;18.05;5.15;;;10.30;97.20;;;;;;5053722;28;20040;-83
2023/05/26 04:19:49;;;;;;;15.07;4.88;;;10.40;97.20;;;;;;5070551;28;20420;-83
2023/05/26 04:22:14;;;;;;;26.45;6.30;;;10.40;97.20;;;;;;5053774;28;20541;-83
2023/05/26 04:24:40;;;;;;;22.85;5.50;;;10.30;97.20;;;;;;5053841;28;20167;-82
2023/05/26 04:27:07;;;;;;;21.35;5.88;;;10.30;97.20;;;;;;5054075;28;20361;-83
2023/05/26 04:29:40;;;;;;;19.20;5.55;;;10.30;97.30;;;;;;5054064;28;20029;-83
2023/05/26 04:32:08;;;;;;;19.13;5.30;;;10.30;97.40;;;;;;5070176;28;20036;-82
2023/05/26 04:34:34;;;;;;;17.33;4.72;;;10.30;97.40;;;;;;5053829;28;20516;-82
2023/05/26 04:37:04;;;;;;;21.00;5.45;;;10.30;97.40;;;;;;5070384;28;20025;-82
2023/05/26 04:39:33;;;;;;;19.35;5.20;;;10.40;97.40;;;;;;5055408;28;20029;-82
2023/05/26 04:41:59;;;;;;;25.90;5.95;;;10.40;97.40;;;;;;5071507;28;20024;-82
2023/05/26 04:44:25;;;;;;;21.40;5.68;;;10.40;97.40;;;;;;5073402;28;20024;-82
2023/05/26 04:46:52;;;;;;;20.67;5.97;;;10.50;97.40;;;;;;5076690;28;20009;-81
2023/05/26 04:49:22;;;;;;;22.25;5.53;;;10.40;97.40;;;;;;5077555;28;20029;-81
2023/05/26 04:51:58;;;;;;;26.80;6.63;;;10.40;97.40;;;;;;5093045;28;20017;-81
2023/05/26 04:54:27;;;;;;;23.15;5.60;;;10.40;97.50;;;;;;5070885;28;20045;-81
2023/05/26 04:56:53;;;;;;;16.45;5.45;;;10.40;97.50;;;;;;5070246;28;20033;-81
2023/05/26 04:59:21;;;;;;;24.55;5.40;;;10.40;97.50;;;;;;5053620;28;22357;-81
2023/05/26 05:01:47;;;;;;;24.55;5.80;;;10.50;97.50;;;;;;5053198;28;20397;-80
2023/05/26 05:04:14;;;;;;;16.70;5.03;;;10.50;97.60;;;;;;5053332;28;20036;-81
2023/05/26 05:06:44;;;;;;;22.50;5.57;;;10.60;97.50;;;;;;5054402;28;20048;-81
2023/05/26 05:09:09;;;;;;;23.85;6.03;;;10.70;97.50;;;;;;5052916;28;20358;-81
2023/05/26 05:11:35;;;;;;;19.25;5.25;;;10.70;97.50;;;;;;5053185;28;20051;-81
2023/05/26 05:14:06;;;;;;;15.30;4.53;;;10.80;97.50;;;;;;5053756;28;20032;-81
2023/05/26 05:16:32;;;;;;;21.73;5.68;;;10.80;97.40;;;;;;5053785;28;20024;-82
2023/05/26 05:18:58;;;;;;;25.13;6.22;;;10.90;97.40;;;;;;5068623;28;20426;-82
2023/05/26 05:21:25;;;;;;;24.00;6.03;;;10.90;97.30;;;;;;5051880;28;20448;-82
2023/05/26 05:23:50;;;;;;;24.92;5.88;;;11.00;97.30;;;;;;5052309;28;20036;-83
2023/05/26 05:26:18;;;;;;;20.70;5.70;;;11.10;97.20;;;;;;5052258;28;20507;-82
2023/05/26 05:28:47;;;;;;;21.17;5.88;;;11.10;97.40;;;;;;5068886;28;20037;-82
2023/05/26 05:31:13;;;;;;;20.48;5.25;;;11.10;97.00;;;;;;5052203;28;20037;-82
2023/05/26 05:33:39;;;;;;;23.70;5.75;;;11.20;97.00;;;;;;5068856;28;20362;-82
2023/05/26 05:36:07;;;;;;;23.70;6.03;;;11.20;96.90;;;;;;5052280;28;20421;-81
2023/05/26 05:38:36;;;;;;;20.88;4.57;;;11.20;96.80;;;;;;5052313;28;20440;-82
2023/05/26 05:41:02;;;;;;;26.13;6.75;;;11.30;96.90;;;;;;5068951;28;20434;-81
2023/05/26 05:43:30;;;;;;;26.83;6.70;;;11.30;96.70;;;;;;5052355;28;20480;-82
2023/05/26 05:45:56;;;;;;;22.15;5.82;;;11.30;96.70;;;;;;5052643;28;20025;-81
2023/05/26 05:48:21;;;;;;;22.75;6.03;;;11.30;96.50;;;;;;5052047;28;20036;-81
2023/05/26 05:50:47;;;;;;;21.08;5.57;;;11.30;96.60;;;;;;5068979;28;20078;-82
2023/05/26 05:53:15;;;;;;;18.02;5.57;;;11.30;96.70;;;;;;5052075;28;20036;-82
2023/05/26 05:55:41;;;;;;;27.67;6.10;;;11.40;96.70;;;;;;5052021;28;20031;-82
2023/05/26 05:58:07;;;;;;;22.40;5.70;;;11.40;96.50;;;;;;5068526;28;20119;-82
2023/05/26 06:00:32;;;;;;;26.08;6.45;;;11.50;96.50;;;;;;5069171;28;20029;-82
2023/05/26 06:02:58;;;;;;;21.17;5.90;;;11.50;96.40;;;;;;5072416;28;20033;-82
2023/05/26 06:05:23;;;;;;;20.42;5.63;;;11.50;96.30;;;;;;5054153;28;20039;-81
2023/05/26 06:07:49;;;;;;;22.15;6.70;;;11.60;96.30;;;;;;5056460;28;20100;-83
2023/05/26 06:10:15;;;;;;;23.50;6.18;;;11.60;96.60;;;;;;5062522;28;20033;-82
2023/05/26 06:12:40;;;;;;;22.23;6.35;;;11.60;96.10;;;;;;5066278;28;20033;-82
2023/05/26 06:15:08;;;;;;;19.60;5.63;;;11.50;96.00;;;;;;5063242;28;20029;-83
2023/05/26 06:17:33;;;;;;;24.02;6.05;;;11.60;96.10;;;;;;5061857;28;20019;-82
2023/05/26 06:19:59;;;;;;;19.10;5.90;;;11.50;96.00;;;;;;5074315;28;20033;-81
2023/05/26 06:22:24;;;;;;;17.77;5.05;;;11.60;96.10;;;;;;5074522;28;20033;-82
2023/05/26 06:24:50;;;;;;;20.63;5.45;;;11.70;96.20;;;;;;5066730;28;20508;-82
2023/05/26 06:27:16;;;;;;;21.98;5.53;;;11.70;95.90;;;;;;5053986;28;20036;-82
2023/05/26 06:29:42;;;;;;;21.70;5.78;;;11.70;95.80;;;;;;5052824;28;20127;-82
2023/05/26 06:32:10;;;;;;;17.15;5.28;;;11.80;95.90;;;;;;5052947;28;20037;-81
2023/05/26 06:34:38;;;;;;;17.67;4.60;;;11.80;95.60;;;;;;5036776;28;20510;-82
2023/05/26 06:37:04;;;;;;;24.95;5.63;;;11.90;95.70;;;;;;5052681;28;20488;-82
2023/05/26 06:39:30;;;;;;;21.63;5.82;;;11.90;95.50;;;;;;5052539;28;20025;-82
2023/05/26 06:41:58;;;;;;;13.52;4.65;;;12.00;95.40;;;;;;5052575;28;20060;-82
2023/05/26 06:44:27;;;;;;;23.08;5.72;;;12.00;95.40;;;;;;5054176;28;20021;-82
2023/05/26 06:46:55;;;;;;;22.30;6.72;;;12.10;95.20;;;;;;5069504;28;20025;-81
2023/05/26 06:49:21;;;;;;;20.48;5.70;;;12.10;95.00;;;;;;5035645;28;20021;-82
2023/05/26 06:51:46;;;;;;;20.80;5.28;;;12.20;95.10;;;;;;5052087;28;20029;-82
2023/05/26 06:54:12;;;;;;;20.40;5.38;;;12.10;94.90;;;;;;5052053;28;20373;-82
2023/05/26 06:56:38;;;;;;;23.48;5.68;;;12.20;94.90;;;;;;5069112;28;20032;-82
2023/05/26 06:59:03;;;;;;;19.95;5.93;;;12.20;94.80;;;;;;5052324;28;20033;-82
2023/05/26 07:01:29;;;;;;;17.50;6.20;;;12.20;94.80;;;;;;5035491;28;20470;-82
2023/05/26 07:03:55;;;;;;;20.23;4.85;;;12.30;94.80;;;;;;5052632;28;20477;-82
2023/05/26 07:06:20;;;;;;;20.52;5.47;;;12.40;94.80;;;;;;5070368;28;20088;-82
2023/05/26 07:08:46;;;;;;;22.13;5.35;;;12.40;94.80;;;;;;5055831;28;20397;-82
2023/05/26 07:11:12;;;;;;;19.35;5.35;;;12.50;94.60;;;;;;5038932;28;20469;-81
2023/05/26 07:13:37;;;;;;;20.08;5.70;;;12.60;94.50;;;;;;5072770;28;20021;-82
2023/05/26 07:16:03;;;;;;;15.40;4.93;;;12.60;94.40;;;;;;5055652;28;20052;-82
2023/05/26 07:22:00;;;;;;;;;;;;;;;;;;;;;
2023/05/26 07:24:52;;;;;;;18.60;5.35;;;12.80;94.40;;;;;;5069423;28;20061;-82
2023/05/26 07:37:42;;;;;;;22.60;5.38;;;12.80;93.60;;;;;;5055452;28;20042;-83
2023/05/26 07:40:08;;;;;;;21.17;5.30;;;12.80;93.60;;;;;;5036588;28;20045;-82
2023/05/26 07:42:34;;;;;;;17.60;5.03;;;12.80;93.40;;;;;;5036623;28;20470;-82
2023/05/26 07:45:01;;;;;;;17.45;5.55;;;12.80;93.50;;;;;;5053507;28;20464;-82
2023/05/26 07:47:31;;;;;;;15.35;4.90;;;12.90;93.60;;;;;;5036677;28;20032;-82
2023/05/26 07:49:59;;;;;;;18.52;5.63;;;13.00;93.70;;;;;;5035753;28;20164;-82
2023/05/26 07:52:25;;;;;;;19.65;5.00;;;13.00;93.50;;;;;;5038112;28;20159;-82
2023/05/26 07:54:51;;;;;;;17.83;5.10;;;13.10;93.50;;;;;;5056480;28;20381;-83
2023/05/26 07:57:17;;;;;;;19.98;4.75;;;13.20;93.40;;;;;;5058953;28;20021;-82
2023/05/26 07:59:43;;;;;;;16.63;5.35;;;13.30;93.30;;;;;;5060097;28;20021;-82
2023/05/26 08:02:10;;;;;;;17.67;5.15;;;13.30;93.10;;;;;;5059265;28;20029;-81
2023/05/26 08:04:36;;;;;;;15.88;4.63;;;13.40;93.10;;;;;;5039412;28;20128;-83
2023/05/26 08:07:01;;;;;;;17.13;5.30;;;13.50;93.10;;;;;;5034760;28;20034;-83
2023/05/26 08:09:27;;;;;;;23.80;6.75;;;13.50;92.80;;;;;;5034333;28;20037;-83
2023/05/26 08:11:52;;;;;;;21.92;5.88;;;13.60;92.80;;;;;;5050919;28;20049;-83
2023/05/26 08:14:20;;;;;;;15.77;5.10;;;13.60;92.60;;;;;;5034115;28;20120;-83
2023/05/26 08:16:45;;;;;;;16.92;5.28;;;13.60;92.60;;;;;;5033989;28;20053;-83
2023/05/26 08:19:11;;;;;;;17.05;5.35;;;13.70;92.60;;;;;;5049739;28;20072;-82
2023/05/26 08:21:37;;;;;;;16.38;5.07;;;13.70;92.30;;;;;;5050204;28;20028;-82
2023/05/26 08:24:02;;;;;;;17.20;5.15;;;13.80;92.40;;;;;;5033881;28;20031;-83
2023/05/26 08:26:28;;;;;;;18.48;5.30;;;13.90;92.40;;;;;;5050850;28;20102;-83
2023/05/26 08:28:54;;;;;;;14.48;4.55;;;13.90;92.20;;;;;;5053724;28;20385;-83
2023/05/26 08:31:20;;;;;;;17.58;5.15;;;14.00;92.10;;;;;;5053502;28;20079;-83
2023/05/26 08:33:45;;;;;;;17.95;5.55;;;14.10;92.00;;;;;;5053661;28;20029;-83
2023/05/26 08:36:11;;;;;;;15.68;4.72;;;14.10;91.80;;;;;;5053432;28;20036;-83
2023/05/26 08:38:37;;;;;;;16.25;5.20;;;14.10;91.60;;;;;;5053307;28;20541;-83
2023/05/26 08:41:05;;;;;;;16.25;4.88;;;14.20;91.50;;;;;;5053539;28;20124;-83
2023/05/26 08:43:50;;;;;;;14.75;5.03;;;14.20;91.50;;;;;;5054499;28;20032;-83
2023/05/26 08:46:16;;;;;;;16.30;5.03;;;14.20;91.40;;;;;;5054096;28;20028;-83
2023/05/26 08:48:44;;;;;;;11.88;4.43;;;14.30;91.40;;;;;;5054119;28;20095;-83
2023/05/26 08:51:10;;;;;;;13.90;4.55;;;14.40;91.50;;;;;;5069481;28;20039;-83
2023/05/26 08:53:37;;;;;;;14.73;4.40;;;14.40;91.50;;;;;;5053251;28;20029;-84
2023/05/26 08:56:03;;;;;;;17.75;5.25;;;14.50;91.00;;;;;;5052832;28;20032;-83
2023/05/26 08:58:31;;;;;;;19.38;5.15;;;14.60;91.10;;;;;;5053042;28;20064;-84
2023/05/26 09:00:58;;;;;;;14.95;4.68;;;14.60;91.00;;;;;;5069659;28;20029;-83
2023/05/26 09:03:24;;;;;;;18.90;5.60;;;14.70;90.90;;;;;;5052923;28;20041;-83
2023/05/26 09:05:49;;;;;;;17.35;5.03;;;14.70;90.80;;;;;;5052998;28;20119;-83
2023/05/26 09:08:15;;;;;;;15.05;4.57;;;14.70;90.70;;;;;;5052803;28;20036;-83
2023/05/26 09:10:41;;;;;;;17.42;4.55;;;14.80;90.50;;;;;;5053201;28;20024;-83
2023/05/26 09:13:12;;;;;;;12.82;4.57;;;14.80;90.50;;;;;;5052915;28;20384;-83
2023/05/26 09:15:39;;;;;;;13.10;5.18;;;14.90;90.50;;;;;;5069120;28;20037;-83
2023/05/26 09:18:17;;;;;;;14.20;4.72;;;14.90;90.20;;;;;;5053009;28;20044;-83
2023/05/26 09:20:48;;;;;;;17.60;5.30;;;15.00;90.40;;;;;;5053289;28;20175;-83
2023/05/26 09:23:15;;;;;;;12.18;4.65;;;15.00;89.60;;;;;;5069399;28;20036;-83
2023/05/26 09:25:45;;;;;;;15.82;4.53;;;15.00;89.80;;;;;;5052944;28;20495;-83
2023/05/26 09:28:12;;;;;;;14.25;4.65;;;15.10;89.40;;;;;;5070176;28;20029;-83
2023/05/26 09:30:43;;;;;;;15.82;5.00;;;15.10;89.00;;;;;;5053583;28;20039;-83
2023/05/26 09:33:11;;;;;;;15.13;4.90;;;15.10;89.20;;;;;;5083437;28;20044;-83
2023/05/26 09:35:38;;;;;;;13.10;4.82;;;15.30;89.70;;;;;;5093205;28;20029;-83
2023/05/26 09:38:05;;;;;;;17.90;5.18;;;15.30;89.70;;;;;;5077833;28;20017;-83
2023/05/26 09:40:31;;;;;;;15.10;4.70;;;15.40;89.40;;;;;;5093749;28;20048;-83
2023/05/26 09:42:56;;;;;;;15.35;4.88;;;15.50;89.30;;;;;;5073182;28;20029;-83
2023/05/26 09:45:25;;;;;;;19.88;5.28;;;15.50;89.00;;;;;;5053826;28;20036;-84
2023/05/26 09:48:10;;;;;;;18.48;5.78;;;15.50;88.70;;;;;;5054283;28;20032;-83
2023/05/26 09:50:50;;;;;;;16.08;4.22;;;15.60;88.80;;;;;;5069019;28;20116;-83
2023/05/26 09:53:15;;;;;;;14.18;4.15;;;15.70;89.30;;;;;;5069044;28;20081;-83
2023/05/26 09:55:43;;;;;;;15.07;4.40;;;15.70;89.30;;;;;;5052338;28;20100;-84
2023/05/26 09:58:11;;;;;;;13.90;4.50;;;15.80;89.20;;;;;;5053207;28;20036;-84
2023/05/26 10:00:39;;;;;;;14.77;5.30;;;15.90;88.10;;;;;;5053361;28;20061;-83
2023/05/26 10:03:07;;;;;;;17.35;4.82;;;16.00;88.10;;;;;;5053335;28;20100;-84
2023/05/26 10:05:34;;;;;;;14.15;5.15;;;16.00;87.00;;;;;;5052998;28;20108;-84
2023/05/26 10:08:00;;;;;;;10.27;4.13;;;16.00;86.80;;;;;;5053207;28;20380;-83
2023/05/26 10:10:29;;;;;;;19.20;5.28;;;16.00;87.00;;;;;;5051876;28;20025;-83
2023/05/26 10:12:55;;;;;;;13.55;4.47;;;16.10;86.20;;;;;;5068711;28;20163;-83
2023/05/26 10:15:21;;;;;;;14.02;4.75;;;16.10;86.10;;;;;;5068685;28;20082;-83
2023/05/26 10:17:47;;;;;;;13.75;4.45;;;16.10;86.80;;;;;;5051862;28;20033;-84
2023/05/26 10:20:13;;;;;;;13.35;4.57;;;16.20;86.20;;;;;;5052953;28;20465;-86
2023/05/26 10:22:55;;;;;;;14.88;3.97;;;16.30;85.90;;;;;;5053856;28;20040;-86
2023/05/26 10:25:27;;;;;;;15.70;4.63;;;16.40;86.10;;;;;;5068921;28;20144;-86
2023/05/26 10:27:58;;;;;;;12.65;4.75;;;16.40;84.00;;;;;;5054023;28;20025;-85
2023/05/26 10:30:27;;;;;;;12.80;4.07;;;16.40;83.10;;;;;;5069045;28;20032;-83
2023/05/26 10:32:55;;;;;;;12.88;4.53;;;16.40;82.80;;;;;;5053485;28;20376;-86
2023/05/26 10:35:23;;;;;;;13.93;4.15;;;16.40;82.70;;;;;;5052448;28;20035;-86
2023/05/26 10:38:11;;;;;;;12.02;4.38;;;16.50;82.80;;;;;;5069790;28;20033;-86
2023/05/26 10:40:41;;;;;;;14.93;5.07;;;16.60;82.20;;;;;;5052607;28;20029;-85
2023/05/26 10:43:22;;;;;;;13.57;4.10;;;16.60;82.00;;;;;;5056162;28;20025;-85
2023/05/26 10:45:55;;;;;;;13.52;4.75;;;16.60;81.50;;;;;;5072379;28;20060;-85
2023/05/26 10:48:24;;;;;;;14.77;4.55;;;16.70;81.60;;;;;;5056865;28;20017;-84
2023/05/26 10:50:59;;;;;;;11.40;3.90;;;16.70;81.70;;;;;;5072197;28;20358;-83
2023/05/26 10:53:33;;;;;;;12.63;4.18;;;16.80;82.10;;;;;;5056696;28;20051;-83
2023/05/26 10:56:09;;;;;;;14.15;4.65;;;16.80;82.20;;;;;;5072060;28;20108;-83
2023/05/26 10:58:47;;;;;;;16.52;4.47;;;16.90;82.50;;;;;;5057342;28;20415;-84
2023/05/26 11:01:27;;;;;;;12.52;4.05;;;17.00;81.90;;;;;;5055788;28;20118;-84
2023/05/26 11:04:08;;;;;;;14.43;4.53;;;17.00;81.60;;;;;;5072490;28;20055;-84
2023/05/26 11:06:54;;;;;;;13.35;4.07;;;17.10;81.10;;;;;;5057022;28;20021;-84
2023/05/26 11:09:25;;;;;;;11.38;3.60;;;17.10;81.20;;;;;;5074271;28;20032;-84
2023/05/26 11:11:57;;;;;;;11.32;3.90;;;17.30;81.00;;;;;;5056109;28;20025;-85
2023/05/26 11:14:30;;;;;;;15.15;4.07;;;17.40;80.90;;;;;;5056179;28;20025;-84
2023/05/26 11:17:01;;;;;;;12.40;4.20;;;17.40;80.00;;;;;;5090964;28;20009;-84
2023/05/26 11:19:28;;;;;;;;;;;17.50;79.20;;;;;;5080342;28;20071;-84
2023/05/26 11:21:54;;;;;;;13.57;4.65;;;17.40;79.70;;;;;;5080740;28;19924;-83
2023/05/26 11:24:22;;;;;;;9.88;3.15;;;17.40;79.40;;;;;;5080049;28;20036;-83
2023/05/26 11:26:48;;;;;;;10.93;4.00;;;17.50;79.60;;;;;;5070160;28;20098;-84
2023/05/26 11:29:14;;;;;;;10.38;3.78;;;17.50;79.20;;;;;;5056523;28;20029;-84
2023/05/26 11:31:40;;;;;;;12.27;3.70;;;17.60;78.80;;;;;;5055301;28;20455;-84
2023/05/26 11:34:05;;;;;;;12.27;3.70;;;17.60;78.40;;;;;;5055947;28;20163;-84
2023/05/26 11:36:31;;;;;;;10.45;3.40;;;17.70;78.00;;;;;;5071397;28;20025;-83
2023/05/26 11:39:01;;;;;;;10.80;3.78;;;17.70;77.80;;;;;;5054660;28;20378;-84
2023/05/26 11:41:27;;;;;;;16.23;4.43;;;17.80;78.20;;;;;;5054615;28;20017;-84
2023/05/26 11:43:54;;;;;;;9.93;3.10;;;17.90;77.60;;;;;;5055419;28;20381;-83
2023/05/26 11:46:25;;;;;;;11.60;3.60;;;17.90;78.00;;;;;;5055987;28;20028;-84
2023/05/26 11:48:51;;;;;;;14.30;4.25;;;18.10;77.20;;;;;;5070886;28;20487;-84
2023/05/26 11:51:19;;;;;;;13.45;4.03;;;18.10;75.70;;;;;;5054426;28;20108;-84
2023/05/26 11:53:46;;;;;;;11.35;3.72;;;18.20;76.20;;;;;;5069798;28;20078;-84
2023/05/26 11:56:14;;;;;;;17.98;4.53;;;18.20;76.00;;;;;;5055481;28;20028;-84
2023/05/26 11:58:45;;;;;;;14.50;4.07;;;18.30;75.90;;;;;;5054322;28;20025;-83
2023/05/26 12:01:12;;;;;;;11.77;4.20;;;18.30;75.50;;;;;;5055403;28;20029;-84
2023/05/26 12:03:49;;;;;;;11.07;3.58;;;18.30;75.80;;;;;;5054898;28;20033;-83
2023/05/26 12:06:23;;;;;;;11.35;3.42;;;18.40;75.10;;;;;;5055409;28;20100;-84
2023/05/26 12:08:56;;;;;;;12.32;3.85;;;18.40;73.80;;;;;;5070638;28;20013;-83
2023/05/26 12:11:29;;;;;;;8.82;4.03;;;18.40;73.60;;;;;;5055328;28;20068;-84
2023/05/26 12:13:57;;;;;;;14.40;4.13;;;18.50;74.20;;;;;;5054140;28;20140;-84
2023/05/26 12:16:33;;;;;;;12.00;3.55;;;18.50;74.30;;;;;;5055135;28;20056;-84
2023/05/26 12:19:02;;;;;;;9.50;3.60;;;18.60;74.30;;;;;;5070487;28;20079;-84
2023/05/26 12:21:29;;;;;;;10.73;3.47;;;18.60;73.90;;;;;;5070771;28;20079;-84
2023/05/26 12:23:59;;;;;;;11.43;3.58;;;18.60;73.70;;;;;;5054868;28;20032;-84
2023/05/26 12:26:27;;;;;;;11.82;3.38;;;18.60;73.80;;;;;;5055121;28;20056;-84
2023/05/26 12:29:08;;;;;;;13.00;3.80;;;18.70;73.90;;;;;;5070014;28;20053;-84
2023/05/26 12:31:37;;;;;;;15.40;3.88;;;18.70;73.70;;;;;;5070290;28;20063;-84
2023/05/26 12:34:02;;;;;;;8.93;3.50;;;18.70;73.80;;;;;;5087493;28;20135;-83
2023/05/26 12:36:28;;;;;;;9.98;4.07;;;18.80;74.30;;;;;;5053557;28;20032;-83
2023/05/26 12:38:54;;;;;;;13.18;3.75;;;18.80;73.00;;;;;;5053770;28;20025;-84
2023/05/26 12:44:05;;;;;;;9.30;3.22;;;18.80;73.30;;;;;;5054318;28;20393;-83
2023/05/26 12:46:31;;;;;;;13.43;3.60;;;18.90;73.40;;;;;;5054841;28;20033;-84
2023/05/26 12:48:57;;;;;;;13.93;4.22;;;18.90;73.50;;;;;;5055074;28;20473;-84
2023/05/26 12:51:24;;;;;;;10.13;3.88;;;18.90;72.50;;;;;;5071441;28;20029;-84
2023/05/26 12:53:53;;;;;;;11.30;3.85;;;18.90;72.70;;;;;;5054412;28;20021;-84
2023/05/26 12:56:19;;;;;;;13.70;3.63;;;19.00;73.30;;;;;;5071303;28;20029;-84
2023/05/26 12:58:48;;;;;;;11.85;4.05;;;19.00;73.00;;;;;;5054976;28;20469;-84